Rodney, Michigan
Current Conditions -  °F | °C
As of 2:15 AM on Thursday 18 Dec 2014 (Local Time) from KRQB Reporting Station
Overcast Overcast  
Wind Chill: 22°   Ceiling: 900
Heat Index: 29°   Visibility: 7mi
Dew Point: 29°   Wind: 7mph
Humidity: 99%   Direction: 300°WNW
Pressure: 30.17"   Gusts: NA
Location:  43.67°N, 85.33°W
Report Text: KRQB 180715Z AUTO 30006KT 7SM OVC009 M01/M02 A3017 RMK AO2 T10151017
Loading
Personal Weather Stations






























Interactive Weather Map New forecast layout! Learn more

10-Day Weather Forecast

Advertisements
Track Severe Weather on mobile